createdAt,value
2018-07-22T00:01:49.936Z,9.93
2018-07-22T00:04:18.623Z,10.77
2018-07-22T00:06:47.480Z,12.33
2018-07-22T00:09:16.281Z,10.57
2018-07-22T00:11:45.069Z,12.27
2018-07-22T00:14:13.801Z,8.90
2018-07-22T00:16:42.590Z,11.07
2018-07-22T00:19:11.405Z,11.83
2018-07-22T00:21:40.192Z,12.40
2018-07-22T00:24:08.957Z,19.73
2018-07-22T00:26:37.761Z,26.07
2018-07-22T00:29:06.534Z,28.23
2018-07-22T00:31:35.312Z,33.60
2018-07-22T00:34:04.061Z,29.87
2018-07-22T00:36:32.853Z,31.53
2018-07-22T00:39:01.794Z,28.97
2018-07-22T00:44:27.391Z,29.83
2018-07-22T00:46:56.144Z,23.23
2018-07-22T00:49:24.916Z,23.20
2018-07-22T00:51:53.709Z,21.00
2018-07-22T00:54:22.502Z,19.87
2018-07-22T00:56:51.792Z,20.07
2018-07-22T00:59:20.571Z,21.07
2018-07-22T01:01:49.337Z,18.10
2018-07-22T01:04:18.160Z,18.47
2018-07-22T01:06:46.941Z,16.80
2018-07-22T01:09:15.701Z,15.87
2018-07-22T01:11:44.512Z,14.57
2018-07-22T01:14:13.277Z,16.07
2018-07-22T01:16:42.064Z,14.13
2018-07-22T01:19:10.825Z,13.77
2018-07-22T01:21:39.624Z,14.67
2018-07-22T01:24:08.486Z,13.27
2018-07-22T01:26:37.068Z,13.93
2018-07-22T01:29:05.537Z,12.30
2018-07-22T01:31:34.045Z,11.00
2018-07-22T01:34:02.769Z,11.77
2018-07-22T01:36:31.514Z,11.03
2018-07-22T01:39:00.104Z,10.57
2018-07-22T01:41:28.765Z,9.63
2018-07-22T01:43:57.532Z,10.77
2018-07-22T01:46:26.346Z,10.10
2018-07-22T01:48:55.109Z,9.10
2018-07-22T01:51:23.873Z,9.50
2018-07-22T01:53:52.608Z,11.40
2018-07-22T01:56:21.562Z,12.30
2018-07-22T01:58:50.325Z,11.10
2018-07-22T02:01:19.245Z,9.60
2018-07-22T02:03:48.022Z,8.27
2018-07-22T02:06:16.782Z,11.13
2018-07-22T02:08:45.577Z,9.80
2018-07-22T02:11:14.120Z,10.37
2018-07-22T02:13:42.797Z,9.47
2018-07-22T02:16:11.805Z,11.00
2018-07-22T02:18:40.570Z,10.40
2018-07-22T02:21:09.335Z,10.23
2018-07-22T02:23:38.119Z,8.63
2018-07-22T02:26:06.890Z,8.80
2018-07-22T02:28:35.471Z,10.63
2018-07-22T02:31:04.129Z,8.10
2018-07-22T02:33:33.052Z,12.27
2018-07-22T02:36:01.805Z,7.50
2018-07-22T02:38:30.572Z,10.33
2018-07-22T02:40:59.308Z,8.73
2018-07-22T02:43:28.306Z,9.83
2018-07-22T02:45:56.937Z,9.07
2018-07-22T02:48:25.618Z,10.63
2018-07-22T02:50:54.366Z,10.33
2018-07-22T02:53:23.032Z,8.07
2018-07-22T02:55:51.750Z,9.80
2018-07-22T02:58:20.522Z,10.47
2018-07-22T03:00:49.298Z,8.47
2018-07-22T03:03:18.175Z,8.67
2018-07-22T03:05:46.874Z,11.50
2018-07-22T03:08:15.908Z,12.27
2018-07-22T03:10:44.670Z,12.00
2018-07-22T03:13:13.264Z,10.57
2018-07-22T03:15:41.913Z,9.60
2018-07-22T03:18:10.770Z,9.37
2018-07-22T03:20:39.542Z,11.10
2018-07-22T03:23:08.313Z,10.00
2018-07-22T03:25:36.891Z,9.40
2018-07-22T03:28:06.193Z,10.33
2018-07-22T03:30:34.764Z,9.77
2018-07-22T03:33:03.281Z,10.30
2018-07-22T03:35:31.961Z,11.30
2018-07-22T03:38:00.709Z,9.33
2018-07-22T03:40:29.501Z,11.33
2018-07-22T03:42:58.273Z,9.10
2018-07-22T03:45:27.049Z,11.73
2018-07-22T03:47:55.805Z,8.60
2018-07-22T03:50:24.591Z,9.13
2018-07-22T03:52:53.160Z,10.73
2018-07-22T03:55:21.832Z,9.23
2018-07-22T03:57:50.625Z,11.10
2018-07-22T04:00:19.232Z,10.93
2018-07-22T04:02:47.901Z,11.17
2018-07-22T04:05:16.544Z,10.67
2018-07-22T04:07:45.215Z,10.43
2018-07-22T04:10:13.976Z,10.17
2018-07-22T04:12:42.844Z,11.87
2018-07-22T04:15:11.609Z,9.80
2018-07-22T04:17:40.529Z,8.80
2018-07-22T04:20:09.124Z,11.53
2018-07-22T04:22:37.801Z,10.83
2018-07-22T04:25:06.557Z,9.67
2018-07-22T04:27:35.368Z,9.63
2018-07-22T04:30:04.489Z,11.37
2018-07-22T04:32:33.252Z,9.50
2018-07-22T04:35:02.004Z,11.43
2018-07-22T04:37:30.836Z,10.17
2018-07-22T04:39:59.464Z,10.47
2018-07-22T04:42:28.134Z,9.80
2018-07-22T04:44:56.888Z,10.33
2018-07-22T04:47:25.653Z,10.77
2018-07-22T04:49:54.437Z,9.03
2018-07-22T04:52:23.248Z,11.27
2018-07-22T04:54:52.076Z,9.17
2018-07-22T04:57:20.801Z,11.97
2018-07-22T04:59:49.584Z,10.43
2018-07-22T05:02:18.385Z,12.30
2018-07-22T05:04:47.177Z,9.83
2018-07-22T05:07:15.988Z,10.63
2018-07-22T05:09:44.757Z,9.10
2018-07-22T05:12:13.513Z,10.40
2018-07-22T05:14:42.325Z,12.30
2018-07-22T05:17:11.505Z,9.70
2018-07-22T05:19:40.301Z,12.63
2018-07-22T05:22:09.049Z,8.90
2018-07-22T05:24:37.596Z,8.53
2018-07-22T05:27:06.273Z,12.03
2018-07-22T05:29:35.042Z,8.20
2018-07-22T05:32:03.805Z,11.13
2018-07-22T05:34:32.561Z,11.87
2018-07-22T05:37:01.453Z,10.50
2018-07-22T05:39:30.217Z,10.93
2018-07-22T05:41:59.004Z,10.67
2018-07-22T05:44:27.797Z,8.87
2018-07-22T05:46:56.569Z,8.90
2018-07-22T05:49:25.332Z,8.80
2018-07-22T05:51:54.177Z,10.53
2018-07-22T05:54:22.952Z,10.70
2018-07-22T05:56:51.737Z,8.13
2018-07-22T05:59:20.564Z,10.03
2018-07-22T06:01:49.140Z,11.77
2018-07-22T06:04:17.611Z,12.57
2018-07-22T06:06:46.295Z,9.87
2018-07-22T06:09:15.072Z,9.77
2018-07-22T06:11:43.885Z,9.73
2018-07-22T06:14:12.612Z,9.70
2018-07-22T06:16:41.555Z,10.17
2018-07-22T06:19:10.257Z,16.63
2018-07-22T06:21:38.839Z,9.90
2018-07-22T06:24:07.509Z,10.67
2018-07-22T06:26:36.261Z,9.13
2018-07-22T06:29:05.109Z,9.33
2018-07-22T06:31:33.705Z,10.50
2018-07-22T06:34:02.366Z,9.83
2018-07-22T06:36:31.350Z,10.40
2018-07-22T06:39:00.121Z,10.37
2018-07-22T06:41:29.157Z,10.77
2018-07-22T06:43:58.195Z,12.23
2018-07-22T06:46:26.961Z,8.67
2018-07-22T06:48:55.706Z,11.13
2018-07-22T06:51:24.480Z,9.37
2018-07-22T06:53:53.261Z,9.30
2018-07-22T06:56:22.073Z,10.13
2018-07-22T06:58:50.841Z,10.30
2018-07-22T07:01:19.628Z,10.07
2018-07-22T07:03:48.498Z,8.90
2018-07-22T07:06:17.249Z,9.90
2018-07-22T07:08:45.782Z,10.37
2018-07-22T07:11:14.481Z,9.50
2018-07-22T07:13:43.245Z,8.37
2018-07-22T07:16:12.006Z,10.47
2018-07-22T07:18:40.741Z,7.73
2018-07-22T07:21:09.549Z,10.17
2018-07-22T07:23:38.294Z,8.37
2018-07-22T07:26:07.129Z,11.37
2018-07-22T07:28:35.897Z,7.83
2018-07-22T07:31:04.729Z,8.73
2018-07-22T07:33:33.309Z,12.87
2018-07-22T07:36:01.957Z,10.30
2018-07-22T07:38:30.746Z,10.33
2018-07-22T07:40:59.509Z,10.90
2018-07-22T07:43:28.277Z,9.00
2018-07-22T07:45:57.057Z,8.43
2018-07-22T07:48:25.829Z,10.80
2018-07-22T07:50:54.621Z,8.80
2018-07-22T07:53:23.132Z,10.90
2018-07-22T07:55:51.774Z,9.27
2018-07-22T07:58:20.546Z,10.27
2018-07-22T08:00:49.313Z,9.67
2018-07-22T08:03:18.097Z,8.10
2018-07-22T08:05:46.851Z,11.30
2018-07-22T08:08:15.667Z,10.93
2018-07-22T08:10:44.425Z,10.40
2018-07-22T08:13:13.177Z,10.13
2018-07-22T08:15:41.909Z,9.50
2018-07-22T08:18:10.681Z,14.00
2018-07-22T08:20:39.441Z,8.70
2018-07-22T08:23:08.305Z,8.07
2018-07-22T08:25:37.049Z,11.13
2018-07-22T08:28:05.821Z,10.93
2018-07-22T08:30:34.720Z,8.60
2018-07-22T08:33:03.433Z,9.67
2018-07-22T08:35:32.208Z,12.17
2018-07-22T08:38:00.961Z,8.47
2018-07-22T08:40:29.741Z,10.30
2018-07-22T08:42:58.516Z,8.43
2018-07-22T08:45:27.257Z,11.00
2018-07-22T08:47:56.225Z,8.70
2018-07-22T08:50:24.989Z,9.03
2018-07-22T08:52:53.781Z,10.80
2018-07-22T08:55:22.541Z,10.50
2018-07-22T08:57:51.305Z,10.70
2018-07-22T09:00:20.138Z,10.23
2018-07-22T09:02:48.902Z,8.63
2018-07-22T09:05:17.677Z,9.50
2018-07-22T09:07:46.433Z,9.07
2018-07-22T09:10:15.218Z,9.70
2018-07-22T09:12:44.013Z,10.00
2018-07-22T09:15:13.446Z,8.73
2018-07-22T09:17:42.385Z,10.63
2018-07-22T09:20:11.389Z,11.70
2018-07-22T09:22:40.133Z,7.80
2018-07-22T09:25:09.060Z,9.97
2018-07-22T09:27:37.846Z,9.57
2018-07-22T09:30:06.805Z,9.67
2018-07-22T09:32:35.589Z,11.47
2018-07-22T09:35:04.589Z,8.40
2018-07-22T09:37:33.365Z,10.00
2018-07-22T09:40:02.161Z,8.90
2018-07-22T09:42:30.937Z,7.90
2018-07-22T09:44:59.497Z,9.87
2018-07-22T09:47:28.186Z,8.90
2018-07-22T09:49:56.987Z,9.87
2018-07-22T09:52:25.856Z,8.87
2018-07-22T09:54:54.737Z,8.60
2018-07-22T09:57:23.570Z,8.63
2018-07-22T09:59:52.334Z,8.23
2018-07-22T10:02:21.174Z,7.53
2018-07-22T10:04:49.976Z,11.10
2018-07-22T10:07:18.520Z,9.23
2018-07-22T10:09:47.225Z,8.33
2018-07-22T10:12:16.011Z,11.60
2018-07-22T10:14:44.928Z,9.47
2018-07-22T10:17:13.568Z,7.93
2018-07-22T10:19:42.223Z,9.77
2018-07-22T10:22:10.886Z,8.90
2018-07-22T10:24:39.676Z,9.87
2018-07-22T10:27:08.609Z,10.10
2018-07-22T10:29:37.364Z,7.90
2018-07-22T10:32:06.920Z,9.67
2018-07-22T10:34:35.484Z,11.17
2018-07-22T10:37:04.186Z,8.20
2018-07-22T10:39:32.981Z,9.13
2018-07-22T10:42:01.537Z,11.53
2018-07-22T10:44:30.205Z,9.20
2018-07-22T10:46:59.026Z,9.93
2018-07-22T10:49:27.853Z,8.87
2018-07-22T10:51:56.614Z,8.23
2018-07-22T10:54:25.407Z,9.60
2018-07-22T10:56:54.293Z,9.20
2018-07-22T10:59:23.140Z,8.70
2018-07-22T11:01:51.881Z,8.03
2018-07-22T11:04:20.480Z,10.33
2018-07-22T11:06:49.147Z,10.07
2018-07-22T11:09:17.900Z,9.53
2018-07-22T11:11:46.689Z,10.77
2018-07-22T11:14:15.535Z,8.00
2018-07-22T11:16:44.270Z,6.70
2018-07-22T11:19:13.041Z,7.90
2018-07-22T11:21:41.785Z,8.60
2018-07-22T11:24:10.461Z,6.97
2018-07-22T11:26:39.101Z,7.53
2018-07-22T11:29:08.408Z,10.27
2018-07-22T11:31:37.125Z,9.77
2018-07-22T11:34:05.896Z,11.20
2018-07-22T11:36:34.757Z,9.47
2018-07-22T11:39:03.751Z,9.43
2018-07-22T11:41:32.450Z,8.20
2018-07-22T11:44:01.358Z,9.53
2018-07-22T11:46:29.893Z,7.33
2018-07-22T11:48:58.598Z,7.77
2018-07-22T11:51:27.413Z,9.30
2018-07-22T11:53:56.181Z,7.67
2018-07-22T11:56:25.069Z,9.37
2018-07-22T11:58:53.860Z,8.50
2018-07-22T12:01:22.743Z,9.73
2018-07-22T12:03:51.512Z,7.87
2018-07-22T12:06:20.281Z,7.77
2018-07-22T12:08:49.169Z,6.90
2018-07-22T12:11:17.983Z,6.93
2018-07-22T12:13:46.753Z,9.50
2018-07-22T12:16:15.372Z,7.50
2018-07-22T12:18:44.025Z,8.87
2018-07-22T12:21:12.603Z,7.87
2018-07-22T12:23:41.302Z,7.20
2018-07-22T12:26:10.101Z,7.67
2018-07-22T12:28:38.935Z,9.33
2018-07-22T12:31:07.760Z,6.40
2018-07-22T12:33:36.451Z,9.63
2018-07-22T12:36:05.186Z,9.60
2018-07-22T12:38:33.896Z,7.10
2018-07-22T12:41:02.754Z,8.33
2018-07-22T12:43:31.376Z,8.67
2018-07-22T12:46:00.162Z,7.07
2018-07-22T12:48:28.945Z,8.47
2018-07-22T12:50:57.731Z,7.40
2018-07-22T12:53:26.549Z,5.77
2018-07-22T12:55:55.354Z,7.70
2018-07-22T12:58:24.393Z,8.00
2018-07-22T13:00:53.213Z,9.13
2018-07-22T13:03:22.053Z,7.20
2018-07-22T13:05:50.823Z,6.57
2018-07-22T13:08:19.593Z,8.77
2018-07-22T13:10:48.404Z,5.37
2018-07-22T13:13:16.971Z,7.40
2018-07-22T13:15:45.666Z,8.03
2018-07-22T13:18:14.406Z,6.10
2018-07-22T13:20:43.139Z,6.90
2018-07-22T13:23:11.937Z,6.00
2018-07-22T13:25:40.613Z,8.30
2018-07-22T13:28:09.228Z,7.93
2018-07-22T13:30:38.020Z,8.43
2018-07-22T13:33:06.997Z,6.33
2018-07-22T13:35:35.811Z,6.30
2018-07-22T13:38:04.731Z,7.40
2018-07-22T13:40:33.541Z,7.90
2018-07-22T13:43:02.293Z,5.27
2018-07-22T13:45:31.136Z,12.60
2018-07-22T13:47:59.917Z,8.37
2018-07-22T13:50:28.698Z,5.73
2018-07-22T13:52:57.448Z,9.50
2018-07-22T13:55:26.209Z,7.83
2018-07-22T13:57:54.945Z,6.47
2018-07-22T14:00:24.837Z,9.40
2018-07-22T14:02:53.331Z,6.10
2018-07-22T14:05:22.023Z,6.10
2018-07-22T14:07:50.830Z,6.83
2018-07-22T14:10:19.395Z,6.20
2018-07-22T14:12:48.058Z,4.43
2018-07-22T14:15:16.836Z,5.47
2018-07-22T14:17:45.647Z,7.43
2018-07-22T14:20:14.377Z,4.73
2018-07-22T14:22:43.153Z,5.03
2018-07-22T14:25:11.938Z,6.00
2018-07-22T14:27:40.693Z,5.27
2018-07-22T14:30:09.437Z,3.90
2018-07-22T14:32:38.213Z,4.23
2018-07-22T14:35:06.847Z,4.63
2018-07-22T14:37:35.282Z,5.97
2018-07-22T14:40:04.014Z,6.50
2018-07-22T14:42:32.793Z,3.77
2018-07-22T14:45:01.542Z,4.63
2018-07-22T14:47:30.131Z,3.80
2018-07-22T14:49:59.849Z,4.67
2018-07-22T14:52:28.428Z,6.03
2018-07-22T14:54:57.105Z,5.57
2018-07-22T14:57:25.855Z,5.97
2018-07-22T14:59:54.598Z,8.33
2018-07-22T15:02:23.361Z,4.27
2018-07-22T15:04:52.139Z,5.60
2018-07-22T15:07:21.059Z,4.73
2018-07-22T15:09:49.630Z,4.40
2018-07-22T15:12:18.313Z,7.53
2018-07-22T15:14:47.073Z,6.10
2018-07-22T15:17:15.863Z,3.83
2018-07-22T15:19:44.597Z,6.03
2018-07-22T15:22:13.348Z,3.90
2018-07-22T15:24:42.099Z,6.90
2018-07-22T15:27:10.870Z,5.13
2018-07-22T15:29:39.620Z,4.20
2018-07-22T15:32:08.401Z,5.43
2018-07-22T15:34:37.154Z,4.13
2018-07-22T15:37:06.010Z,3.60
2018-07-22T15:39:34.781Z,4.43
2018-07-22T15:42:03.629Z,4.27
2018-07-22T15:44:32.413Z,4.40
2018-07-22T15:47:01.177Z,3.40
2018-07-22T15:49:29.985Z,6.80
2018-07-22T15:51:58.593Z,6.47
2018-07-22T15:54:27.266Z,6.33
2018-07-22T15:56:56.161Z,7.63
2018-07-22T15:59:24.901Z,7.17
2018-07-22T16:01:53.488Z,6.27
2018-07-22T16:04:22.157Z,5.67
2018-07-22T16:06:50.929Z,7.33
2018-07-22T16:09:19.916Z,4.83
2018-07-22T16:11:48.723Z,4.73
2018-07-22T16:14:18.118Z,5.37
2018-07-22T16:16:46.889Z,4.37
2018-07-22T16:19:15.639Z,3.90
2018-07-22T16:21:44.461Z,5.17
2018-07-22T16:24:13.197Z,5.13
2018-07-22T16:26:41.752Z,7.03
2018-07-22T16:29:10.427Z,3.50
2018-07-22T16:31:39.189Z,4.27
2018-07-22T16:34:08.065Z,5.70
2018-07-22T16:36:36.821Z,8.33
2018-07-22T16:39:07.321Z,7.27
2018-07-22T16:41:36.129Z,3.77
2018-07-22T16:44:05.248Z,4.77
2018-07-22T16:46:33.803Z,5.20
2018-07-22T16:49:02.540Z,4.80
2018-07-22T16:51:31.304Z,4.10
2018-07-22T16:53:59.864Z,3.97
2018-07-22T16:56:28.733Z,4.33
2018-07-22T16:58:57.503Z,5.47
2018-07-22T17:01:26.294Z,4.50
2018-07-22T17:03:55.102Z,2.40
2018-07-22T17:06:23.873Z,2.17
2018-07-22T17:08:52.665Z,3.20
2018-07-22T17:11:21.429Z,2.10
2018-07-22T17:13:50.385Z,2.67
2018-07-22T17:16:19.156Z,3.77
2018-07-22T17:18:48.044Z,3.83
2018-07-22T17:21:16.809Z,2.67
2018-07-22T17:23:45.577Z,3.57
2018-07-22T17:26:14.341Z,5.73
2018-07-22T17:28:43.123Z,5.37
2018-07-22T17:31:11.909Z,3.60
2018-07-22T17:33:40.692Z,3.50
2018-07-22T17:36:09.444Z,2.13
2018-07-22T17:38:38.232Z,3.10
2018-07-22T17:41:07.221Z,2.93
2018-07-22T17:43:35.976Z,3.80
2018-07-22T17:46:04.509Z,3.20
2018-07-22T17:48:33.217Z,4.00
2018-07-22T17:51:01.995Z,2.90
2018-07-22T17:53:30.732Z,2.33
2018-07-22T17:55:59.672Z,2.80
2018-07-22T17:58:28.492Z,2.40
2018-07-22T18:00:57.231Z,4.17
2018-07-22T18:03:30.095Z,3.23
2018-07-22T18:05:59.061Z,3.00
2018-07-22T18:08:27.657Z,3.47
2018-07-22T18:10:56.490Z,4.37
2018-07-22T18:13:25.325Z,2.00
2018-07-22T18:15:54.087Z,2.77
2018-07-22T18:18:22.932Z,3.97
2018-07-22T18:20:51.708Z,4.07
2018-07-22T18:23:20.471Z,3.00
2018-07-22T18:25:49.212Z,3.67
2018-07-22T18:28:17.954Z,3.57
2018-07-22T18:30:46.719Z,4.33
2018-07-22T18:33:15.470Z,4.27
2018-07-22T18:35:44.368Z,4.30
2018-07-22T18:38:13.128Z,4.40
2018-07-22T18:40:41.997Z,3.33
2018-07-22T18:43:10.785Z,3.87
2018-07-22T18:45:39.550Z,2.80
2018-07-22T18:48:08.353Z,3.50
2018-07-22T18:50:37.085Z,4.77
2018-07-22T18:53:05.834Z,2.90
2018-07-22T18:55:34.601Z,2.90
2018-07-22T18:58:03.365Z,2.27
2018-07-22T19:00:32.121Z,2.50
2018-07-22T19:03:00.653Z,3.00
2018-07-22T19:05:29.369Z,3.90
2018-07-22T19:07:58.116Z,3.13
2018-07-22T19:10:26.887Z,3.87
2018-07-22T19:12:55.653Z,3.47
2018-07-22T19:15:24.208Z,3.07
2018-07-22T19:17:52.881Z,4.40
2018-07-22T19:20:21.653Z,4.53
2018-07-22T19:22:50.401Z,4.53
2018-07-22T19:25:19.021Z,6.03
2018-07-22T19:27:47.646Z,3.87
2018-07-22T19:30:16.463Z,3.47
2018-07-22T19:32:45.205Z,9.23
2018-07-22T19:35:13.977Z,3.60
2018-07-22T19:37:42.797Z,5.03
2018-07-22T19:40:11.652Z,7.40
2018-07-22T19:42:40.597Z,4.60
2018-07-22T19:45:09.373Z,4.30
2018-07-22T19:47:38.133Z,3.50
2018-07-22T19:50:06.948Z,3.97
2018-07-22T19:52:35.775Z,4.70
2018-07-22T19:55:04.560Z,3.10
2018-07-22T19:57:33.280Z,4.83
2018-07-22T20:00:02.105Z,5.87
2018-07-22T20:02:30.897Z,5.50
2018-07-22T20:04:59.729Z,3.20
2018-07-22T20:07:28.656Z,5.33
2018-07-22T20:09:57.470Z,4.63
2018-07-22T20:12:26.205Z,6.40
2018-07-22T20:14:54.948Z,4.93
2018-07-22T20:17:23.752Z,4.87
2018-07-22T20:19:52.288Z,8.60
2018-07-22T20:22:21.025Z,5.13
2018-07-22T20:24:51.406Z,5.23
2018-07-22T20:27:20.273Z,4.10
2018-07-22T20:29:49.086Z,4.90
2018-07-22T20:32:17.896Z,5.13
2018-07-22T20:34:46.673Z,4.47
2018-07-22T20:37:15.486Z,7.63
2018-07-22T20:39:44.321Z,10.17
2018-07-22T20:42:13.077Z,9.77
2018-07-22T20:44:41.668Z,8.47
2018-07-22T20:47:10.367Z,6.43
2018-07-22T20:49:39.097Z,5.50
2018-07-22T20:52:07.883Z,8.90
2018-07-22T20:54:36.669Z,6.47
2018-07-22T20:57:05.784Z,4.37
2018-07-22T20:59:34.561Z,5.03
2018-07-22T21:02:03.417Z,6.03
2018-07-22T21:04:32.210Z,4.27
2018-07-22T21:07:01.049Z,7.87
2018-07-22T21:09:29.945Z,5.23
2018-07-22T21:13:06.713Z,4.70
2018-07-22T21:15:35.517Z,4.97
2018-07-22T21:18:04.273Z,4.73
2018-07-22T21:20:33.044Z,5.03
2018-07-22T21:23:01.788Z,6.30
2018-07-22T21:25:30.550Z,5.30
2018-07-22T21:27:59.317Z,6.03
2018-07-22T21:30:28.240Z,5.10
2018-07-22T21:32:56.969Z,4.03
2018-07-22T21:35:25.877Z,4.30
2018-07-22T21:37:54.600Z,6.83
2018-07-22T21:40:23.434Z,5.53
2018-07-22T21:42:52.157Z,7.70
2018-07-22T21:45:20.906Z,6.60
2018-07-22T21:47:49.660Z,4.93
2018-07-22T21:50:18.416Z,7.50
2018-07-22T21:52:47.152Z,6.30
2018-07-22T21:55:15.908Z,5.17
2018-07-22T21:57:44.693Z,7.27
2018-07-22T22:00:33.042Z,5.40
2018-07-22T22:03:02.871Z,5.87
2018-07-22T22:05:31.668Z,5.93
2018-07-22T22:08:00.442Z,5.13
2018-07-22T22:10:29.190Z,4.70
2018-07-22T22:12:57.949Z,5.47
2018-07-22T22:15:27.573Z,5.30
2018-07-22T22:17:57.502Z,5.60
2018-07-22T22:20:26.755Z,5.73
2018-07-22T22:22:55.655Z,8.37
2018-07-22T22:25:24.227Z,7.97
2018-07-22T22:27:52.899Z,6.07
2018-07-22T22:30:21.609Z,5.97
2018-07-22T22:32:50.204Z,5.17
2018-07-22T22:35:18.957Z,6.10
2018-07-22T22:37:47.752Z,5.60
2018-07-22T22:40:16.716Z,5.10
2018-07-22T22:42:46.493Z,5.90
2018-07-22T22:45:15.777Z,5.37
2018-07-22T22:47:44.781Z,6.43
2018-07-22T22:50:13.336Z,6.67
2018-07-22T22:52:42.157Z,5.30
2018-07-22T22:55:10.918Z,6.20
2018-07-22T22:57:41.440Z,4.60
2018-07-22T23:00:10.192Z,5.60
2018-07-22T23:02:38.977Z,9.90
2018-07-22T23:05:08.241Z,6.80
2018-07-22T23:07:36.816Z,6.23
2018-07-22T23:10:05.587Z,5.60
2018-07-22T23:12:34.341Z,6.47
2018-07-22T23:15:03.096Z,6.73
2018-07-22T23:17:31.681Z,6.93
2018-07-22T23:20:00.418Z,5.20
2018-07-22T23:22:29.169Z,8.03
2018-07-22T23:24:57.928Z,6.17
2018-07-22T23:27:26.690Z,5.33
2018-07-22T23:29:55.471Z,6.87
2018-07-22T23:32:24.380Z,5.57
2018-07-22T23:34:53.193Z,7.20
2018-07-22T23:37:21.969Z,8.53
2018-07-22T23:39:50.860Z,6.47
2018-07-22T23:42:19.725Z,7.17
2018-07-22T23:44:48.533Z,6.50
2018-07-22T23:47:17.353Z,5.33
2018-07-22T23:49:45.920Z,6.87
2018-07-22T23:52:14.465Z,5.30
2018-07-22T23:54:43.155Z,5.67
2018-07-22T23:57:11.949Z,6.33
2018-07-22T23:59:40.976Z,7.20
